Terminal Aerodrome Forecast
Issued by NWS

Home | Current Version | Previous Version | Text Only | Print | Product List | Glossary On
Versions: 1 2 3 4 5 6 7 8 9 10 11 12 13 14 15 16 17 18 19
000
FTUS45 KTFX 230500
TAFLWT
TAF
KLWT 230520Z 2306/2406 VRB06KT P6SM -RA BKN005 OVC025
      TEMPO 2306/2310 4SM -RA BR
     FM231200 01014KT 3SM RA BR OVC005=

USA.gov is the U.S. government's official web portal to all federal, state and local government web resources and services.